Orbital elements of FENGYUN 1C DEB
| Launched | 9 May 1999 |
| Flight ended | – |
| Launch site | Taiyuan Space Center, PRC |
| Owner | People's Republic of China |
| NORAD ID | 30196 |
| Date fetched |
Epoch osculation |
Inc. [°] |
Ecc. | RA asc node [hr] |
Arg Peri. [°] |
Mean anom [°] |
Mean motion [rev/day] |
Abs. mag |
| Date fetched |
Epoch osculation |
Inc. [°] |
Ecc. | RA asc node [hr] |
Arg Peri. [°] |
Mean anom [°] |
Mean motion [rev/day] |
Abs. mag |
| 2026 May 08 17:57 | 2026 May 05 06:05:19 | 98.6330 | 0.00860 | 14.7081 | 5.2154 | 20.8583 | 14.25898 | – |
| 2026 May 07 17:58 | 2026 May 05 06:05:19 | 98.6330 | 0.00860 | 14.7081 | 5.2154 | 20.8583 | 14.25898 | – |
| 2026 May 06 17:57 | 2026 May 05 06:05:19 | 98.6330 | 0.00860 | 14.7081 | 5.2154 | 20.8583 | 14.25898 | – |
| 2026 May 05 17:57 | 2026 May 05 06:05:19 | 98.6330 | 0.00860 | 14.7081 | 5.2154 | 20.8583 | 14.25898 | – |
| 2026 May 04 17:57 | 2026 Apr 30 13:12:26 | 98.6328 | 0.00862 | 14.3992 | 18.8984 | 20.8583 | 14.25898 | – |
| 2026 May 03 17:57 | 2026 Apr 30 13:12:26 | 98.6328 | 0.00862 | 14.3992 | 18.8984 | 20.8583 | 14.25898 | – |
| 2026 May 02 17:57 | 2026 Apr 30 13:12:26 | 98.6328 | 0.00862 | 14.3992 | 18.8984 | 20.8583 | 14.25898 | – |
| 2026 May 01 17:56 | 2026 Apr 30 13:12:26 | 98.6328 | 0.00862 | 14.3992 | 18.8984 | 20.8583 | 14.25898 | – |
| 2026 Apr 30 17:56 | 2026 Apr 30 13:12:26 | 98.6328 | 0.00862 | 14.3992 | 18.8984 | 20.8583 | 14.25898 | – |
| 2026 Apr 29 17:57 | 2026 Apr 24 05:41:33 | 98.6323 | 0.00866 | 13.9845 | 37.2038 | 20.8583 | 14.25898 | – |
| 2026 Apr 28 17:56 | 2026 Apr 24 05:41:33 | 98.6323 | 0.00866 | 13.9845 | 37.2038 | 20.8583 | 14.25898 | – |
| 2026 Apr 27 17:58 | 2026 Apr 24 05:41:33 | 98.6323 | 0.00866 | 13.9845 | 37.2038 | 20.8583 | 14.25898 | – |
| 2026 Apr 26 17:58 | 2026 Apr 24 05:41:33 | 98.6323 | 0.00866 | 13.9845 | 37.2038 | 20.8583 | 14.25898 | – |
| 2026 Apr 25 17:58 | 2026 Apr 24 05:41:33 | 98.6323 | 0.00866 | 13.9845 | 37.2038 | 20.8583 | 14.25898 | – |
| 2026 Apr 24 17:59 | 2026 Apr 24 05:41:33 | 98.6323 | 0.00866 | 13.9845 | 37.2038 | 20.8583 | 14.25898 | – |
| 2026 Apr 23 17:57 | 2026 Apr 19 12:48:06 | 98.6320 | 0.00868 | 13.6755 | 50.7972 | 20.8583 | 14.25898 | – |
| 2026 Apr 22 17:57 | 2026 Apr 19 12:48:06 | 98.6320 | 0.00868 | 13.6755 | 50.7972 | 20.8583 | 14.25898 | – |
| 2026 Apr 21 17:57 | 2026 Apr 19 12:48:06 | 98.6320 | 0.00868 | 13.6755 | 50.7972 | 20.8583 | 14.25898 | – |
| 2026 Apr 20 17:57 | 2026 Apr 19 12:48:06 | 98.6320 | 0.00868 | 13.6755 | 50.7972 | 20.8583 | 14.25898 | – |
| 2026 Apr 19 17:58 | 2026 Apr 19 12:48:06 | 98.6320 | 0.00868 | 13.6755 | 50.7972 | 20.8583 | 14.25898 | – |
| 2026 Apr 18 17:56 | 2026 Apr 13 05:17:54 | 98.6318 | 0.00870 | 13.2609 | 69.0051 | 20.8583 | 14.25898 | – |
| 2026 Apr 16 17:57 | 2026 Apr 13 05:17:54 | 98.6318 | 0.00870 | 13.2609 | 69.0051 | 20.8583 | 14.25898 | – |
| 2026 Apr 14 17:57 | 2026 Apr 13 05:17:54 | 98.6318 | 0.00870 | 13.2609 | 69.0051 | 20.8583 | 14.25898 | – |
| 2026 Apr 13 17:57 | 2026 Apr 13 05:17:54 | 98.6318 | 0.00870 | 13.2609 | 69.0051 | 20.8583 | 14.25898 | – |
| 2026 Apr 12 17:57 | 2026 Apr 08 12:22:32 | 98.6315 | 0.00870 | 12.9519 | 82.5583 | 20.8583 | 14.25898 | – |
| 2026 Apr 11 17:57 | 2026 Apr 08 12:22:32 | 98.6315 | 0.00870 | 12.9519 | 82.5583 | 20.8583 | 14.25898 | – |